< < Back
Terminal Aerodrome Forecast


Current Version              Previous Versions:   1  2  3  4  5  6  7  8  9  

Terminal Aerodrome Forecast

675
FTUS42 KFFC 291558 AAB
TAFPDK
TAF AMD
KPDK 291558Z 2916/3012 14006KT P6SM BKN020
     FM291800 13008KT P6SM VCSH BKN040
     FM300200 13005KT P6SM FEW040 SCT120=

Latest METAR

142
SAUS70 KWBC 291800 RRL
MTRPDK
METAR KPDK 291753Z 14006KT 8SM SCT037 SCT049 27/18 A3022 RMK AO2 SLP221
T02670183 10272 20189 58007


USA.gov is the U.S. government's official web portal to all federal, state and local government web resources and services.